sensor_id;sensor_type;location;lat;lon;timestamp;P1;durP1;ratioP1;P2;durP2;ratioP2
10191;SDS011;17580;50.850;4.504;2022-07-23T00:02:28;6.03;;;5.63;;
10191;SDS011;17580;50.850;4.504;2022-07-23T00:04:56;6.90;;;6.23;;
10191;SDS011;17580;50.850;4.504;2022-07-23T00:07:23;6.93;;;6.30;;
10191;SDS011;17580;50.850;4.504;2022-07-23T00:09:50;6.80;;;5.77;;
10191;SDS011;17580;50.850;4.504;2022-07-23T00:12:17;6.23;;;5.73;;
10191;SDS011;17580;50.850;4.504;2022-07-23T00:14:44;5.93;;;5.43;;
10191;SDS011;17580;50.850;4.504;2022-07-23T00:17:11;6.10;;;5.60;;
10191;SDS011;17580;50.850;4.504;2022-07-23T00:19:41;6.47;;;5.87;;
10191;SDS011;17580;50.850;4.504;2022-07-23T00:22:09;7.83;;;5.97;;
10191;SDS011;17580;50.850;4.504;2022-07-23T00:24:36;6.43;;;5.80;;
10191;SDS011;17580;50.850;4.504;2022-07-23T00:27:03;6.37;;;5.87;;
10191;SDS011;17580;50.850;4.504;2022-07-23T00:29:30;6.87;;;6.30;;
10191;SDS011;17580;50.850;4.504;2022-07-23T00:31:57;7.33;;;6.63;;
10191;SDS011;17580;50.850;4.504;2022-07-23T00:34:24;6.23;;;5.77;;
10191;SDS011;17580;50.850;4.504;2022-07-23T00:36:51;7.83;;;7.10;;
10191;SDS011;17580;50.850;4.504;2022-07-23T00:39:20;6.67;;;6.07;;
10191;SDS011;17580;50.850;4.504;2022-07-23T00:41:48;6.73;;;6.13;;
10191;SDS011;17580;50.850;4.504;2022-07-23T00:44:19;6.30;;;5.87;;
10191;SDS011;17580;50.850;4.504;2022-07-23T00:46:49;6.13;;;5.70;;
10191;SDS011;17580;50.850;4.504;2022-07-23T00:49:18;6.97;;;6.37;;
10191;SDS011;17580;50.850;4.504;2022-07-23T00:51:46;8.10;;;6.70;;
10191;SDS011;17580;50.850;4.504;2022-07-23T00:54:13;7.80;;;6.73;;
10191;SDS011;17580;50.850;4.504;2022-07-23T00:56:42;6.93;;;6.27;;
10191;SDS011;17580;50.850;4.504;2022-07-23T00:59:09;6.77;;;6.10;;
10191;SDS011;17580;50.850;4.504;2022-07-23T01:01:37;7.00;;;6.40;;
10191;SDS011;17580;50.850;4.504;2022-07-23T01:04:04;6.87;;;6.27;;
10191;SDS011;17580;50.850;4.504;2022-07-23T01:06:31;6.90;;;6.30;;
10191;SDS011;17580;50.850;4.504;2022-07-23T01:09:01;6.77;;;6.27;;
10191;SDS011;17580;50.850;4.504;2022-07-23T01:11:28;7.20;;;6.60;;
10191;SDS011;17580;50.850;4.504;2022-07-23T01:13:58;12.30;;;6.73;;
10191;SDS011;17580;50.850;4.504;2022-07-23T01:16:25;7.50;;;6.80;;
10191;SDS011;17580;50.850;4.504;2022-07-23T01:18:52;8.47;;;6.87;;
10191;SDS011;17580;50.850;4.504;2022-07-23T01:21:19;7.03;;;6.50;;
10191;SDS011;17580;50.850;4.504;2022-07-23T01:23:47;6.00;;;5.60;;
10191;SDS011;17580;50.850;4.504;2022-07-23T01:26:14;9.00;;;5.87;;
10191;SDS011;17580;50.850;4.504;2022-07-23T01:28:42;7.57;;;6.90;;
10191;SDS011;17580;50.850;4.504;2022-07-23T01:31:09;7.63;;;6.97;;
10191;SDS011;17580;50.850;4.504;2022-07-23T01:33:36;6.83;;;6.33;;
10191;SDS011;17580;50.850;4.504;2022-07-23T01:36:04;7.00;;;6.50;;
10191;SDS011;17580;50.850;4.504;2022-07-23T01:38:31;6.80;;;6.20;;
10191;SDS011;17580;50.850;4.504;2022-07-23T01:40:59;7.77;;;6.63;;
10191;SDS011;17580;50.850;4.504;2022-07-23T01:43:26;7.47;;;6.80;;
10191;SDS011;17580;50.850;4.504;2022-07-23T01:45:53;7.20;;;6.63;;
10191;SDS011;17580;50.850;4.504;2022-07-23T01:48:20;7.83;;;7.03;;
10191;SDS011;17580;50.850;4.504;2022-07-23T01:50:47;7.93;;;7.13;;
10191;SDS011;17580;50.850;4.504;2022-07-23T01:53:14;13.13;;;6.57;;
10191;SDS011;17580;50.850;4.504;2022-07-23T01:55:42;7.20;;;6.50;;
10191;SDS011;17580;50.850;4.504;2022-07-23T01:58:10;7.10;;;6.50;;
10191;SDS011;17580;50.850;4.504;2022-07-23T02:00:37;7.83;;;7.03;;
10191;SDS011;17580;50.850;4.504;2022-07-23T02:03:04;7.60;;;6.90;;
10191;SDS011;17580;50.850;4.504;2022-07-23T02:05:31;10.80;;;7.40;;
10191;SDS011;17580;50.850;4.504;2022-07-23T02:07:58;7.43;;;6.80;;
10191;SDS011;17580;50.850;4.504;2022-07-23T02:10:25;7.50;;;6.80;;
10191;SDS011;17580;50.850;4.504;2022-07-23T02:12:52;8.03;;;7.23;;
10191;SDS011;17580;50.850;4.504;2022-07-23T02:15:21;10.37;;;7.40;;
10191;SDS011;17580;50.850;4.504;2022-07-23T02:17:48;7.40;;;6.80;;
10191;SDS011;17580;50.850;4.504;2022-07-23T02:20:15;9.37;;;8.37;;
10191;SDS011;17580;50.850;4.504;2022-07-23T02:22:42;8.33;;;7.57;;
10191;SDS011;17580;50.850;4.504;2022-07-23T02:25:09;8.00;;;7.30;;
10191;SDS011;17580;50.850;4.504;2022-07-23T02:27:36;7.50;;;6.80;;
10191;SDS011;17580;50.850;4.504;2022-07-23T02:30:03;7.93;;;7.17;;
10191;SDS011;17580;50.850;4.504;2022-07-23T02:32:32;8.50;;;7.70;;
10191;SDS011;17580;50.850;4.504;2022-07-23T02:34:59;8.10;;;7.40;;
10191;SDS011;17580;50.850;4.504;2022-07-23T02:37:26;8.80;;;8.10;;
10191;SDS011;17580;50.850;4.504;2022-07-23T02:39:53;9.93;;;7.50;;
10191;SDS011;17580;50.850;4.504;2022-07-23T02:42:20;7.30;;;6.73;;
10191;SDS011;17580;50.850;4.504;2022-07-23T02:44:49;9.00;;;6.90;;
10191;SDS011;17580;50.850;4.504;2022-07-23T02:47:16;7.67;;;6.87;;
10191;SDS011;17580;50.850;4.504;2022-07-23T02:49:45;8.40;;;7.60;;
10191;SDS011;17580;50.850;4.504;2022-07-23T02:52:12;6.67;;;6.17;;
10191;SDS011;17580;50.850;4.504;2022-07-23T02:54:39;7.97;;;6.83;;
10191;SDS011;17580;50.850;4.504;2022-07-23T02:57:09;10.43;;;7.77;;
10191;SDS011;17580;50.850;4.504;2022-07-23T02:59:37;8.03;;;7.23;;
10191;SDS011;17580;50.850;4.504;2022-07-23T03:02:04;8.43;;;7.53;;
10191;SDS011;17580;50.850;4.504;2022-07-23T03:04:31;8.07;;;7.27;;
10191;SDS011;17580;50.850;4.504;2022-07-23T03:06:59;7.97;;;7.27;;
10191;SDS011;17580;50.850;4.504;2022-07-23T03:09:26;7.77;;;7.07;;
10191;SDS011;17580;50.850;4.504;2022-07-23T03:11:52;7.90;;;7.17;;
10191;SDS011;17580;50.850;4.504;2022-07-23T03:14:19;7.40;;;6.90;;
10191;SDS011;17580;50.850;4.504;2022-07-23T03:16:46;7.57;;;6.77;;
10191;SDS011;17580;50.850;4.504;2022-07-23T03:19:14;7.80;;;7.10;;
10191;SDS011;17580;50.850;4.504;2022-07-23T03:21:41;7.47;;;6.77;;
10191;SDS011;17580;50.850;4.504;2022-07-23T03:24:10;7.63;;;6.83;;
10191;SDS011;17580;50.850;4.504;2022-07-23T03:26:37;7.63;;;6.93;;
10191;SDS011;17580;50.850;4.504;2022-07-23T03:29:04;7.80;;;7.10;;
10191;SDS011;17580;50.850;4.504;2022-07-23T03:31:31;8.80;;;6.53;;
10191;SDS011;17580;50.850;4.504;2022-07-23T03:33:58;10.30;;;7.57;;
10191;SDS011;17580;50.850;4.504;2022-07-23T03:36:25;8.13;;;7.43;;
10191;SDS011;17580;50.850;4.504;2022-07-23T03:38:53;8.00;;;7.03;;
10191;SDS011;17580;50.850;4.504;2022-07-23T03:41:21;7.57;;;6.97;;
10191;SDS011;17580;50.850;4.504;2022-07-23T03:43:48;8.87;;;7.27;;
10191;SDS011;17580;50.850;4.504;2022-07-23T03:46:15;7.07;;;6.47;;
10191;SDS011;17580;50.850;4.504;2022-07-23T03:48:42;7.93;;;7.20;;
10191;SDS011;17580;50.850;4.504;2022-07-23T03:51:09;7.03;;;6.33;;
10191;SDS011;17580;50.850;4.504;2022-07-23T03:53:36;7.13;;;6.43;;
10191;SDS011;17580;50.850;4.504;2022-07-23T03:56:03;7.27;;;6.60;;
10191;SDS011;17580;50.850;4.504;2022-07-23T03:58:31;7.50;;;6.90;;
10191;SDS011;17580;50.850;4.504;2022-07-23T04:00:58;6.63;;;6.13;;
10191;SDS011;17580;50.850;4.504;2022-07-23T04:03:25;8.13;;;7.37;;
10191;SDS011;17580;50.850;4.504;2022-07-23T04:05:52;7.20;;;6.60;;
10191;SDS011;17580;50.850;4.504;2022-07-23T04:08:19;7.03;;;6.43;;
10191;SDS011;17580;50.850;4.504;2022-07-23T04:10:46;7.20;;;6.63;;
10191;SDS011;17580;50.850;4.504;2022-07-23T04:13:13;7.10;;;6.47;;
10191;SDS011;17580;50.850;4.504;2022-07-23T04:15:43;6.53;;;6.03;;
10191;SDS011;17580;50.850;4.504;2022-07-23T04:18:10;6.77;;;6.27;;
10191;SDS011;17580;50.850;4.504;2022-07-23T04:20:42;6.87;;;6.27;;
10191;SDS011;17580;50.850;4.504;2022-07-23T04:23:09;7.10;;;6.40;;
10191;SDS011;17580;50.850;4.504;2022-07-23T04:25:37;8.37;;;6.63;;
10191;SDS011;17580;50.850;4.504;2022-07-23T04:28:04;7.33;;;6.33;;
10191;SDS011;17580;50.850;4.504;2022-07-23T04:30:31;6.77;;;6.03;;
10191;SDS011;17580;50.850;4.504;2022-07-23T04:32:59;6.90;;;6.30;;
10191;SDS011;17580;50.850;4.504;2022-07-23T04:35:26;7.67;;;6.87;;
10191;SDS011;17580;50.850;4.504;2022-07-23T04:37:53;9.07;;;6.33;;
10191;SDS011;17580;50.850;4.504;2022-07-23T04:40:20;7.97;;;6.87;;
10191;SDS011;17580;50.850;4.504;2022-07-23T04:42:47;8.07;;;7.33;;
10191;SDS011;17580;50.850;4.504;2022-07-23T04:45:14;7.43;;;6.83;;
10191;SDS011;17580;50.850;4.504;2022-07-23T04:47:41;10.77;;;7.87;;
10191;SDS011;17580;50.850;4.504;2022-07-23T04:50:09;9.37;;;8.40;;
10191;SDS011;17580;50.850;4.504;2022-07-23T04:52:36;9.07;;;8.17;;
10191;SDS011;17580;50.850;4.504;2022-07-23T04:55:03;9.33;;;8.53;;
10191;SDS011;17580;50.850;4.504;2022-07-23T04:57:31;8.90;;;8.00;;
10191;SDS011;17580;50.850;4.504;2022-07-23T04:59:58;10.17;;;8.70;;
10191;SDS011;17580;50.850;4.504;2022-07-23T05:02:25;9.20;;;8.40;;
10191;SDS011;17580;50.850;4.504;2022-07-23T05:04:52;9.30;;;8.60;;
10191;SDS011;17580;50.850;4.504;2022-07-23T05:07:20;10.13;;;8.20;;
10191;SDS011;17580;50.850;4.504;2022-07-23T05:09:47;10.97;;;8.20;;
10191;SDS011;17580;50.850;4.504;2022-07-23T05:12:14;9.67;;;7.77;;
10191;SDS011;17580;50.850;4.504;2022-07-23T05:14:43;9.50;;;8.50;;
10191;SDS011;17580;50.850;4.504;2022-07-23T05:17:10;8.47;;;7.67;;
10191;SDS011;17580;50.850;4.504;2022-07-23T05:19:40;8.83;;;8.07;;
10191;SDS011;17580;50.850;4.504;2022-07-23T05:22:10;9.07;;;7.93;;
10191;SDS011;17580;50.850;4.504;2022-07-23T05:24:42;8.93;;;8.13;;
10191;SDS011;17580;50.850;4.504;2022-07-23T05:27:09;8.83;;;7.93;;
10191;SDS011;17580;50.850;4.504;2022-07-23T05:29:38;8.53;;;7.83;;
10191;SDS011;17580;50.850;4.504;2022-07-23T05:32:05;8.77;;;7.90;;
10191;SDS011;17580;50.850;4.504;2022-07-23T05:34:32;8.33;;;7.60;;
10191;SDS011;17580;50.850;4.504;2022-07-23T05:37:00;9.80;;;8.90;;
10191;SDS011;17580;50.850;4.504;2022-07-23T05:39:27;9.63;;;8.40;;
10191;SDS011;17580;50.850;4.504;2022-07-23T05:41:55;8.80;;;8.03;;
10191;SDS011;17580;50.850;4.504;2022-07-23T05:44:22;8.60;;;7.80;;
10191;SDS011;17580;50.850;4.504;2022-07-23T05:46:49;10.00;;;9.00;;
10191;SDS011;17580;50.850;4.504;2022-07-23T05:49:16;8.87;;;7.93;;
10191;SDS011;17580;50.850;4.504;2022-07-23T05:51:42;8.97;;;8.10;;
10191;SDS011;17580;50.850;4.504;2022-07-23T05:54:10;9.33;;;8.43;;
10191;SDS011;17580;50.850;4.504;2022-07-23T05:56:37;11.83;;;8.17;;
10191;SDS011;17580;50.850;4.504;2022-07-23T05:59:05;8.57;;;7.87;;
10191;SDS011;17580;50.850;4.504;2022-07-23T06:01:32;9.20;;;8.20;;
10191;SDS011;17580;50.850;4.504;2022-07-23T06:03:59;8.73;;;7.93;;
10191;SDS011;17580;50.850;4.504;2022-07-23T06:06:26;8.33;;;7.63;;
10191;SDS011;17580;50.850;4.504;2022-07-23T06:08:53;8.17;;;7.47;;
10191;SDS011;17580;50.850;4.504;2022-07-23T06:11:19;8.13;;;7.47;;
10191;SDS011;17580;50.850;4.504;2022-07-23T06:13:46;9.07;;;8.17;;
10191;SDS011;17580;50.850;4.504;2022-07-23T06:16:14;9.17;;;8.37;;
10191;SDS011;17580;50.850;4.504;2022-07-23T06:18:41;8.97;;;8.13;;
10191;SDS011;17580;50.850;4.504;2022-07-23T06:21:08;8.57;;;7.97;;
10191;SDS011;17580;50.850;4.504;2022-07-23T06:23:35;8.80;;;7.93;;
10191;SDS011;17580;50.850;4.504;2022-07-23T06:26:02;7.80;;;7.10;;
10191;SDS011;17580;50.850;4.504;2022-07-23T06:28:29;9.03;;;8.10;;
10191;SDS011;17580;50.850;4.504;2022-07-23T06:30:56;8.23;;;7.53;;
10191;SDS011;17580;50.850;4.504;2022-07-23T06:33:24;8.23;;;7.53;;
10191;SDS011;17580;50.850;4.504;2022-07-23T06:35:51;7.70;;;7.00;;
10191;SDS011;17580;50.850;4.504;2022-07-23T06:38:21;8.10;;;7.47;;
10191;SDS011;17580;50.850;4.504;2022-07-23T06:40:47;8.33;;;7.53;;
10191;SDS011;17580;50.850;4.504;2022-07-23T06:43:14;8.30;;;7.60;;
10191;SDS011;17580;50.850;4.504;2022-07-23T06:45:41;9.60;;;8.70;;
10191;SDS011;17580;50.850;4.504;2022-07-23T06:48:08;10.33;;;9.23;;
10191;SDS011;17580;50.850;4.504;2022-07-23T06:50:36;8.70;;;8.00;;
10191;SDS011;17580;50.850;4.504;2022-07-23T06:53:03;8.10;;;7.30;;
10191;SDS011;17580;50.850;4.504;2022-07-23T06:55:30;8.37;;;7.57;;
10191;SDS011;17580;50.850;4.504;2022-07-23T06:57:57;7.53;;;6.83;;
10191;SDS011;17580;50.850;4.504;2022-07-23T07:00:24;10.60;;;9.53;;
10191;SDS011;17580;50.850;4.504;2022-07-23T07:02:53;8.90;;;8.20;;
10191;SDS011;17580;50.850;4.504;2022-07-23T07:05:20;8.17;;;7.37;;
10191;SDS011;17580;50.850;4.504;2022-07-23T07:07:49;8.30;;;7.60;;
10191;SDS011;17580;50.850;4.504;2022-07-23T07:10:16;7.47;;;6.77;;
10191;SDS011;17580;50.850;4.504;2022-07-23T07:12:43;7.90;;;7.20;;
10191;SDS011;17580;50.850;4.504;2022-07-23T07:15:10;8.07;;;7.10;;
10191;SDS011;17580;50.850;4.504;2022-07-23T07:17:38;10.63;;;9.60;;
10191;SDS011;17580;50.850;4.504;2022-07-23T07:20:05;8.37;;;7.57;;
10191;SDS011;17580;50.850;4.504;2022-07-23T07:22:32;7.03;;;6.43;;
10191;SDS011;17580;50.850;4.504;2022-07-23T07:25:01;7.60;;;6.90;;
10191;SDS011;17580;50.850;4.504;2022-07-23T07:27:28;6.87;;;6.27;;
10191;SDS011;17580;50.850;4.504;2022-07-23T07:29:55;7.60;;;7.00;;
10191;SDS011;17580;50.850;4.504;2022-07-23T07:32:22;7.37;;;6.67;;
10191;SDS011;17580;50.850;4.504;2022-07-23T07:34:49;6.77;;;6.17;;
10191;SDS011;17580;50.850;4.504;2022-07-23T07:37:16;11.80;;;9.73;;
10191;SDS011;17580;50.850;4.504;2022-07-23T07:39:43;10.23;;;9.33;;
10191;SDS011;17580;50.850;4.504;2022-07-23T07:42:11;7.37;;;6.80;;
10191;SDS011;17580;50.850;4.504;2022-07-23T07:44:38;6.70;;;6.20;;
10191;SDS011;17580;50.850;4.504;2022-07-23T07:47:05;7.80;;;7.10;;
10191;SDS011;17580;50.850;4.504;2022-07-23T07:49:32;7.40;;;6.70;;
10191;SDS011;17580;50.850;4.504;2022-07-23T07:51:59;7.10;;;6.40;;
10191;SDS011;17580;50.850;4.504;2022-07-23T07:54:26;6.77;;;6.17;;
10191;SDS011;17580;50.850;4.504;2022-07-23T07:56:53;7.30;;;6.60;;
10191;SDS011;17580;50.850;4.504;2022-07-23T07:59:21;7.40;;;6.73;;
10191;SDS011;17580;50.850;4.504;2022-07-23T08:01:48;7.53;;;6.83;;
10191;SDS011;17580;50.850;4.504;2022-07-23T08:04:15;7.03;;;6.43;;
10191;SDS011;17580;50.850;4.504;2022-07-23T08:06:42;7.50;;;6.70;;
10191;SDS011;17580;50.850;4.504;2022-07-23T08:09:09;7.37;;;6.37;;
10191;SDS011;17580;50.850;4.504;2022-07-23T08:11:36;7.77;;;6.97;;
10191;SDS011;17580;50.850;4.504;2022-07-23T08:14:03;6.87;;;6.20;;
10191;SDS011;17580;50.850;4.504;2022-07-23T08:16:31;6.90;;;6.20;;
10191;SDS011;17580;50.850;4.504;2022-07-23T08:18:58;6.07;;;5.50;;
10191;SDS011;17580;50.850;4.504;2022-07-23T08:21:25;7.37;;;6.17;;
10191;SDS011;17580;50.850;4.504;2022-07-23T08:23:52;7.17;;;6.13;;
10191;SDS011;17580;50.850;4.504;2022-07-23T08:26:19;7.50;;;6.03;;
10191;SDS011;17580;50.850;4.504;2022-07-23T08:28:45;7.37;;;6.67;;
10191;SDS011;17580;50.850;4.504;2022-07-23T08:31:12;6.43;;;5.80;;
10191;SDS011;17580;50.850;4.504;2022-07-23T08:33:43;7.00;;;6.30;;
10191;SDS011;17580;50.850;4.504;2022-07-23T08:36:09;6.63;;;6.07;;
10191;SDS011;17580;50.850;4.504;2022-07-23T08:38:36;8.97;;;7.40;;
10191;SDS011;17580;50.850;4.504;2022-07-23T08:41:03;6.77;;;5.47;;
10191;SDS011;17580;50.850;4.504;2022-07-23T08:43:33;5.90;;;5.40;;
10191;SDS011;17580;50.850;4.504;2022-07-23T08:46:01;8.13;;;6.97;;
10191;SDS011;17580;50.850;4.504;2022-07-23T08:48:30;5.50;;;5.07;;
10191;SDS011;17580;50.850;4.504;2022-07-23T08:50:59;5.70;;;5.30;;
10191;SDS011;17580;50.850;4.504;2022-07-23T08:53:27;5.90;;;5.40;;
10191;SDS011;17580;50.850;4.504;2022-07-23T08:55:56;6.47;;;5.23;;
10191;SDS011;17580;50.850;4.504;2022-07-23T08:58:24;5.63;;;5.13;;
10191;SDS011;17580;50.850;4.504;2022-07-23T09:00:51;7.47;;;6.40;;
10191;SDS011;17580;50.850;4.504;2022-07-23T09:03:20;6.10;;;5.50;;
10191;SDS011;17580;50.850;4.504;2022-07-23T09:05:49;6.70;;;5.80;;
10191;SDS011;17580;50.850;4.504;2022-07-23T09:08:19;5.07;;;4.67;;
10191;SDS011;17580;50.850;4.504;2022-07-23T09:10:48;5.20;;;4.73;;
10191;SDS011;17580;50.850;4.504;2022-07-23T09:13:24;5.97;;;5.27;;
10191;SDS011;17580;50.850;4.504;2022-07-23T09:15:53;6.37;;;5.20;;
10191;SDS011;17580;50.850;4.504;2022-07-23T09:18:29;5.33;;;4.90;;
10191;SDS011;17580;50.850;4.504;2022-07-23T09:21:07;4.23;;;3.93;;
10191;SDS011;17580;50.850;4.504;2022-07-23T09:23:46;4.60;;;4.33;;
10191;SDS011;17580;50.850;4.504;2022-07-23T09:26:19;5.23;;;4.77;;
10191;SDS011;17580;50.850;4.504;2022-07-23T09:28:52;4.67;;;4.27;;
10191;SDS011;17580;50.850;4.504;2022-07-23T09:31:22;3.97;;;3.67;;
10191;SDS011;17580;50.850;4.504;2022-07-23T09:33:50;5.80;;;4.03;;
10191;SDS011;17580;50.850;4.504;2022-07-23T09:36:26;3.40;;;3.20;;
10191;SDS011;17580;50.850;4.504;2022-07-23T09:38:56;3.73;;;3.43;;
10191;SDS011;17580;50.850;4.504;2022-07-23T09:41:22;3.37;;;3.17;;
10191;SDS011;17580;50.850;4.504;2022-07-23T09:43:54;3.23;;;3.03;;
10191;SDS011;17580;50.850;4.504;2022-07-23T09:46:23;3.33;;;3.13;;
10191;SDS011;17580;50.850;4.504;2022-07-23T09:48:52;3.37;;;2.93;;
10191;SDS011;17580;50.850;4.504;2022-07-23T09:51:21;4.13;;;3.50;;
10191;SDS011;17580;50.850;4.504;2022-07-23T09:53:52;5.83;;;3.17;;
10191;SDS011;17580;50.850;4.504;2022-07-23T09:56:20;4.73;;;3.57;;
10191;SDS011;17580;50.850;4.504;2022-07-23T09:58:49;3.00;;;2.77;;
10191;SDS011;17580;50.850;4.504;2022-07-23T10:01:16;3.65;;;3.35;;
10191;SDS011;17580;50.850;4.504;2022-07-23T10:03:46;3.37;;;3.17;;
10191;SDS011;17580;50.850;4.504;2022-07-23T10:06:13;4.10;;;3.80;;
10191;SDS011;17580;50.850;4.504;2022-07-23T10:08:40;3.35;;;3.05;;
10191;SDS011;17580;50.850;4.504;2022-07-23T10:11:10;3.10;;;2.90;;
10191;SDS011;17580;50.850;4.504;2022-07-23T10:13:42;3.08;;;2.78;;
10191;SDS011;17580;50.850;4.504;2022-07-23T10:16:18;3.50;;;3.22;;
10191;SDS011;17580;50.850;4.504;2022-07-23T10:18:45;2.58;;;2.42;;
10191;SDS011;17580;50.850;4.504;2022-07-23T10:21:12;6.40;;;3.08;;
10191;SDS011;17580;50.850;4.504;2022-07-23T10:23:47;2.50;;;2.30;;
10191;SDS011;17580;50.850;4.504;2022-07-23T10:26:28;2.90;;;2.75;;
10191;SDS011;17580;50.850;4.504;2022-07-23T10:29:08;2.30;;;2.20;;
10191;SDS011;17580;50.850;4.504;2022-07-23T10:31:47;3.03;;;2.83;;
10191;SDS011;17580;50.850;4.504;2022-07-23T10:34:24;3.47;;;3.00;;
10191;SDS011;17580;50.850;4.504;2022-07-23T10:36:58;3.65;;;3.45;;
10191;SDS011;17580;50.850;4.504;2022-07-23T10:39:31;3.75;;;3.45;;
10191;SDS011;17580;50.850;4.504;2022-07-23T10:42:09;3.33;;;3.10;;
10191;SDS011;17580;50.850;4.504;2022-07-23T10:44:39;3.00;;;2.80;;
10191;SDS011;17580;50.850;4.504;2022-07-23T10:47:08;3.30;;;3.00;;
10191;SDS011;17580;50.850;4.504;2022-07-23T10:50:18;3.13;;;2.80;;
10191;SDS011;17580;50.850;4.504;2022-07-23T10:55:41;3.15;;;2.88;;
10191;SDS011;17580;50.850;4.504;2022-07-23T10:58:09;2.40;;;2.20;;
10191;SDS011;17580;50.850;4.504;2022-07-23T11:00:38;2.45;;;2.17;;
10191;SDS011;17580;50.850;4.504;2022-07-23T11:03:27;3.25;;;2.55;;
10191;SDS011;17580;50.850;4.504;2022-07-23T11:06:03;1.70;;;1.70;;
10191;SDS011;17580;50.850;4.504;2022-07-23T11:08:31;2.85;;;2.50;;
10191;SDS011;17580;50.850;4.504;2022-07-23T11:11:07;2.08;;;1.95;;
10191;SDS011;17580;50.850;4.504;2022-07-23T11:13:40;2.58;;;2.47;;
10191;SDS011;17580;50.850;4.504;2022-07-23T11:16:13;3.25;;;2.55;;
10191;SDS011;17580;50.850;4.504;2022-07-23T11:18:55;2.53;;;2.33;;
10191;SDS011;17580;50.850;4.504;2022-07-23T11:21:42;2.50;;;2.40;;
10191;SDS011;17580;50.850;4.504;2022-07-23T11:24:16;2.85;;;2.55;;
10191;SDS011;17580;50.850;4.504;2022-07-23T11:26:46;2.35;;;2.17;;
10191;SDS011;17580;50.850;4.504;2022-07-23T11:32:06;2.25;;;2.10;;
10191;SDS011;17580;50.850;4.504;2022-07-23T11:34:35;3.20;;;2.97;;
10191;SDS011;17580;50.850;4.504;2022-07-23T11:37:06;2.78;;;2.58;;
10191;SDS011;17580;50.850;4.504;2022-07-23T11:39:34;2.90;;;2.70;;
10191;SDS011;17580;50.850;4.504;2022-07-23T11:42:03;2.95;;;2.67;;
10191;SDS011;17580;50.850;4.504;2022-07-23T11:44:32;2.72;;;2.53;;
10191;SDS011;17580;50.850;4.504;2022-07-23T11:47:00;2.80;;;2.60;;
10191;SDS011;17580;50.850;4.504;2022-07-23T11:49:30;2.67;;;2.45;;
10191;SDS011;17580;50.850;4.504;2022-07-23T11:52:04;2.42;;;2.28;;
10191;SDS011;17580;50.850;4.504;2022-07-23T11:54:32;2.90;;;2.70;;
10191;SDS011;17580;50.850;4.504;2022-07-23T11:57:00;2.83;;;2.60;;
10191;SDS011;17580;50.850;4.504;2022-07-23T11:59:28;2.65;;;2.47;;
10191;SDS011;17580;50.850;4.504;2022-07-23T12:02:00;2.72;;;2.58;;
10191;SDS011;17580;50.850;4.504;2022-07-23T12:04:38;3.83;;;2.75;;
10191;SDS011;17580;50.850;4.504;2022-07-23T12:07:22;3.63;;;2.90;;
10191;SDS011;17580;50.850;4.504;2022-07-23T12:09:58;3.00;;;2.40;;
10191;SDS011;17580;50.850;4.504;2022-07-23T12:12:27;3.00;;;2.80;;
10191;SDS011;17580;50.850;4.504;2022-07-23T12:15:03;2.38;;;2.28;;
10191;SDS011;17580;50.850;4.504;2022-07-23T12:17:31;2.30;;;2.20;;
10191;SDS011;17580;50.850;4.504;2022-07-23T12:20:02;2.63;;;2.53;;
10191;SDS011;17580;50.850;4.504;2022-07-23T12:22:33;2.53;;;2.33;;
10191;SDS011;17580;50.850;4.504;2022-07-23T12:25:03;3.40;;;3.10;;
10191;SDS011;17580;50.850;4.504;2022-07-23T12:27:32;3.80;;;3.47;;
10191;SDS011;17580;50.850;4.504;2022-07-23T12:30:14;3.28;;;2.97;;
10191;SDS011;17580;50.850;4.504;2022-07-23T12:32:43;3.00;;;2.80;;
10191;SDS011;17580;50.850;4.504;2022-07-23T12:35:13;3.20;;;2.83;;
10191;SDS011;17580;50.850;4.504;2022-07-23T12:37:41;3.20;;;3.08;;
10191;SDS011;17580;50.850;4.504;2022-07-23T12:40:18;3.38;;;3.17;;
10191;SDS011;17580;50.850;4.504;2022-07-23T12:42:48;2.70;;;2.55;;
10191;SDS011;17580;50.850;4.504;2022-07-23T12:45:17;3.65;;;3.35;;
10191;SDS011;17580;50.850;4.504;2022-07-23T12:47:51;2.95;;;2.70;;
10191;SDS011;17580;50.850;4.504;2022-07-23T12:53:25;3.63;;;2.30;;
10191;SDS011;17580;50.850;4.504;2022-07-23T12:55:57;2.95;;;2.75;;
10191;SDS011;17580;50.850;4.504;2022-07-23T12:58:26;2.83;;;2.70;;
10191;SDS011;17580;50.850;4.504;2022-07-23T13:01:05;2.88;;;2.78;;
10191;SDS011;17580;50.850;4.504;2022-07-23T13:03:33;3.00;;;2.90;;
10191;SDS011;17580;50.850;4.504;2022-07-23T13:06:03;2.70;;;2.60;;
10191;SDS011;17580;50.850;4.504;2022-07-23T13:08:32;2.50;;;2.40;;
10191;SDS011;17580;50.850;4.504;2022-07-23T13:11:00;3.13;;;2.90;;
10191;SDS011;17580;50.850;4.504;2022-07-23T13:13:28;3.20;;;2.90;;
10191;SDS011;17580;50.850;4.504;2022-07-23T13:15:56;2.60;;;2.40;;
10191;SDS011;17580;50.850;4.504;2022-07-23T13:18:24;2.87;;;2.63;;
10191;SDS011;17580;50.850;4.504;2022-07-23T13:20:52;2.80;;;2.70;;
10191;SDS011;17580;50.850;4.504;2022-07-23T13:23:21;3.10;;;2.90;;
10191;SDS011;17580;50.850;4.504;2022-07-23T13:25:48;2.90;;;2.43;;
10191;SDS011;17580;50.850;4.504;2022-07-23T13:28:17;2.93;;;2.83;;
10191;SDS011;17580;50.850;4.504;2022-07-23T13:30:44;3.20;;;2.90;;
10191;SDS011;17580;50.850;4.504;2022-07-23T13:33:14;2.67;;;2.57;;
10191;SDS011;17580;50.850;4.504;2022-07-23T13:35:41;3.00;;;2.80;;
10191;SDS011;17580;50.850;4.504;2022-07-23T13:38:09;2.77;;;2.57;;
10191;SDS011;17580;50.850;4.504;2022-07-23T13:40:38;2.70;;;2.50;;
10191;SDS011;17580;50.850;4.504;2022-07-23T13:43:07;4.07;;;3.77;;
10191;SDS011;17580;50.850;4.504;2022-07-23T13:45:35;3.00;;;2.90;;
10191;SDS011;17580;50.850;4.504;2022-07-23T13:48:02;3.17;;;2.87;;
10191;SDS011;17580;50.850;4.504;2022-07-23T13:50:30;3.03;;;2.90;;
10191;SDS011;17580;50.850;4.504;2022-07-23T13:53:00;2.87;;;2.70;;
10191;SDS011;17580;50.850;4.504;2022-07-23T13:55:27;4.47;;;3.60;;
10191;SDS011;17580;50.850;4.504;2022-07-23T13:57:55;2.77;;;2.67;;
10191;SDS011;17580;50.850;4.504;2022-07-23T14:00:22;3.80;;;3.60;;
10191;SDS011;17580;50.850;4.504;2022-07-23T14:02:49;3.23;;;2.87;;
10191;SDS011;17580;50.850;4.504;2022-07-23T14:05:17;3.80;;;3.40;;
10191;SDS011;17580;50.850;4.504;2022-07-23T14:07:44;3.60;;;3.30;;
10191;SDS011;17580;50.850;4.504;2022-07-23T14:10:12;3.80;;;3.50;;
10191;SDS011;17580;50.850;4.504;2022-07-23T14:12:39;3.27;;;3.03;;
10191;SDS011;17580;50.850;4.504;2022-07-23T14:15:08;3.70;;;3.40;;
10191;SDS011;17580;50.850;4.504;2022-07-23T14:17:35;3.63;;;3.20;;
10191;SDS011;17580;50.850;4.504;2022-07-23T14:20:02;3.37;;;3.07;;
10191;SDS011;17580;50.850;4.504;2022-07-23T14:22:30;2.87;;;2.70;;
10191;SDS011;17580;50.850;4.504;2022-07-23T14:24:58;3.37;;;3.17;;
10191;SDS011;17580;50.850;4.504;2022-07-23T14:27:25;3.93;;;3.63;;
10191;SDS011;17580;50.850;4.504;2022-07-23T14:29:53;3.70;;;3.30;;
10191;SDS011;17580;50.850;4.504;2022-07-23T14:32:22;2.90;;;2.70;;
10191;SDS011;17580;50.850;4.504;2022-07-23T14:34:49;2.83;;;2.70;;
10191;SDS011;17580;50.850;4.504;2022-07-23T14:37:17;3.30;;;3.00;;
10191;SDS011;17580;50.850;4.504;2022-07-23T14:39:44;3.60;;;3.37;;
10191;SDS011;17580;50.850;4.504;2022-07-23T14:42:11;3.10;;;2.90;;
10191;SDS011;17580;50.850;4.504;2022-07-23T14:44:39;3.87;;;3.00;;
10191;SDS011;17580;50.850;4.504;2022-07-23T14:47:07;4.07;;;3.67;;
10191;SDS011;17580;50.850;4.504;2022-07-23T14:49:36;3.40;;;3.13;;
10191;SDS011;17580;50.850;4.504;2022-07-23T14:52:03;3.60;;;3.30;;
10191;SDS011;17580;50.850;4.504;2022-07-23T14:54:31;4.33;;;3.50;;
10191;SDS011;17580;50.850;4.504;2022-07-23T14:56:58;3.67;;;3.20;;
10191;SDS011;17580;50.850;4.504;2022-07-23T14:59:28;3.67;;;3.40;;
10191;SDS011;17580;50.850;4.504;2022-07-23T15:01:56;6.03;;;3.37;;
10191;SDS011;17580;50.850;4.504;2022-07-23T15:04:23;3.50;;;3.20;;
10191;SDS011;17580;50.850;4.504;2022-07-23T15:06:51;3.70;;;3.40;;